sensor_id;sensor_type;location;lat;lon;timestamp;pressure;altitude;pressure_sealevel;temperature;humidity
48553;BME280;34335;51.566;6.994;2024-03-08T00:00:28;101243.66;;;2.24;100.00
48553;BME280;34335;51.566;6.994;2024-03-08T00:02:53;101246.19;;;2.23;100.00
48553;BME280;34335;51.566;6.994;2024-03-08T00:05:19;101242.72;;;2.22;100.00
48553;BME280;34335;51.566;6.994;2024-03-08T00:07:44;101241.72;;;2.18;100.00
48553;BME280;34335;51.566;6.994;2024-03-08T00:10:11;101234.72;;;2.14;100.00
48553;BME280;34335;51.566;6.994;2024-03-08T00:12:41;101237.09;;;2.10;100.00
48553;BME280;34335;51.566;6.994;2024-03-08T00:15:10;101238.66;;;2.06;100.00
48553;BME280;34335;51.566;6.994;2024-03-08T00:17:38;101233.53;;;2.06;100.00
48553;BME280;34335;51.566;6.994;2024-03-08T00:20:04;101234.94;;;1.99;100.00
48553;BME280;34335;51.566;6.994;2024-03-08T00:22:30;101237.63;;;2.02;100.00
48553;BME280;34335;51.566;6.994;2024-03-08T00:24:55;101231.22;;;1.93;100.00
48553;BME280;34335;51.566;6.994;2024-03-08T00:27:21;101235.41;;;1.91;100.00
48553;BME280;34335;51.566;6.994;2024-03-08T00:29:46;101234.34;;;1.85;100.00
48553;BME280;34335;51.566;6.994;2024-03-08T00:32:12;101224.00;;;1.84;100.00
48553;BME280;34335;51.566;6.994;2024-03-08T00:34:37;101229.84;;;1.80;100.00
48553;BME280;34335;51.566;6.994;2024-03-08T00:37:03;101228.22;;;1.82;100.00
48553;BME280;34335;51.566;6.994;2024-03-08T00:39:29;101224.75;;;1.81;100.00
48553;BME280;34335;51.566;6.994;2024-03-08T00:41:54;101227.28;;;1.80;100.00
48553;BME280;34335;51.566;6.994;2024-03-08T00:44:19;101222.81;;;1.76;100.00
48553;BME280;34335;51.566;6.994;2024-03-08T00:46:44;101215.88;;;1.73;100.00
48553;BME280;34335;51.566;6.994;2024-03-08T00:49:10;101220.84;;;1.70;100.00
48553;BME280;34335;51.566;6.994;2024-03-08T00:51:35;101219.72;;;1.63;100.00
48553;BME280;34335;51.566;6.994;2024-03-08T00:54:01;101214.50;;;1.62;100.00
48553;BME280;34335;51.566;6.994;2024-03-08T00:56:26;101205.22;;;1.64;100.00
48553;BME280;34335;51.566;6.994;2024-03-08T00:58:51;101205.81;;;1.58;100.00
48553;BME280;34335;51.566;6.994;2024-03-08T01:01:19;101205.75;;;1.57;100.00
48553;BME280;34335;51.566;6.994;2024-03-08T01:03:44;101206.56;;;1.55;100.00
48553;BME280;34335;51.566;6.994;2024-03-08T01:06:09;101210.59;;;1.50;100.00
48553;BME280;34335;51.566;6.994;2024-03-08T01:08:36;101195.34;;;1.53;100.00
48553;BME280;34335;51.566;6.994;2024-03-08T01:11:04;101195.09;;;1.47;100.00
48553;BME280;34335;51.566;6.994;2024-03-08T01:13:30;101191.44;;;1.42;100.00
48553;BME280;34335;51.566;6.994;2024-03-08T01:15:55;101186.06;;;1.36;100.00
48553;BME280;34335;51.566;6.994;2024-03-08T01:18:20;101186.91;;;1.36;100.00
48553;BME280;34335;51.566;6.994;2024-03-08T01:20:45;101179.16;;;1.35;100.00
48553;BME280;34335;51.566;6.994;2024-03-08T01:23:11;101176.75;;;1.38;100.00
48553;BME280;34335;51.566;6.994;2024-03-08T01:25:36;101184.16;;;1.32;100.00
48553;BME280;34335;51.566;6.994;2024-03-08T01:28:01;101161.97;;;1.32;100.00
48553;BME280;34335;51.566;6.994;2024-03-08T01:30:27;101161.09;;;1.32;100.00
48553;BME280;34335;51.566;6.994;2024-03-08T01:32:53;101167.41;;;1.20;100.00
48553;BME280;34335;51.566;6.994;2024-03-08T01:35:18;101168.56;;;1.27;100.00
48553;BME280;34335;51.566;6.994;2024-03-08T01:37:44;101169.13;;;1.20;100.00
48553;BME280;34335;51.566;6.994;2024-03-08T01:40:09;101165.00;;;1.23;100.00
48553;BME280;34335;51.566;6.994;2024-03-08T01:42:34;101158.81;;;1.18;100.00
48553;BME280;34335;51.566;6.994;2024-03-08T01:45:04;101156.25;;;1.18;100.00
48553;BME280;34335;51.566;6.994;2024-03-08T01:47:30;101152.59;;;1.13;100.00
48553;BME280;34335;51.566;6.994;2024-03-08T01:49:58;101153.06;;;1.04;100.00
48553;BME280;34335;51.566;6.994;2024-03-08T01:52:25;101149.63;;;1.04;100.00
48553;BME280;34335;51.566;6.994;2024-03-08T01:54:51;101145.44;;;1.06;100.00
48553;BME280;34335;51.566;6.994;2024-03-08T01:57:17;101144.63;;;1.07;100.00
48553;BME280;34335;51.566;6.994;2024-03-08T01:59:42;101137.56;;;1.01;100.00
48553;BME280;34335;51.566;6.994;2024-03-08T02:02:09;101141.06;;;1.03;100.00
48553;BME280;34335;51.566;6.994;2024-03-08T02:04:36;101137.41;;;0.98;100.00
48553;BME280;34335;51.566;6.994;2024-03-08T02:07:03;101136.53;;;0.98;100.00
48553;BME280;34335;51.566;6.994;2024-03-08T02:09:30;101130.41;;;0.94;100.00
48553;BME280;34335;51.566;6.994;2024-03-08T02:11:56;101136.38;;;0.95;100.00
48553;BME280;34335;51.566;6.994;2024-03-08T02:14:22;101127.75;;;0.92;100.00
48553;BME280;34335;51.566;6.994;2024-03-08T02:16:48;101122.44;;;0.88;100.00
48553;BME280;34335;51.566;6.994;2024-03-08T02:19:14;101125.94;;;0.90;100.00
48553;BME280;34335;51.566;6.994;2024-03-08T02:21:39;101120.63;;;0.85;100.00
48553;BME280;34335;51.566;6.994;2024-03-08T02:24:04;101113.69;;;0.83;100.00
48553;BME280;34335;51.566;6.994;2024-03-08T02:26:30;101120.47;;;0.82;100.00
48553;BME280;34335;51.566;6.994;2024-03-08T02:28:56;101112.66;;;0.79;100.00
48553;BME280;34335;51.566;6.994;2024-03-08T02:31:21;101109.16;;;0.77;100.00
48553;BME280;34335;51.566;6.994;2024-03-08T02:33:47;101112.44;;;0.74;100.00
48553;BME280;34335;51.566;6.994;2024-03-08T02:36:12;101108.19;;;0.75;100.00
48553;BME280;34335;51.566;6.994;2024-03-08T02:38:38;101106.38;;;0.72;100.00
48553;BME280;34335;51.566;6.994;2024-03-08T02:41:05;101108.06;;;0.72;100.00
48553;BME280;34335;51.566;6.994;2024-03-08T02:43:31;101104.63;;;0.71;100.00
48553;BME280;34335;51.566;6.994;2024-03-08T02:45:56;101095.19;;;0.70;100.00
48553;BME280;34335;51.566;6.994;2024-03-08T02:48:21;101094.22;;;0.68;100.00
48553;BME280;34335;51.566;6.994;2024-03-08T02:50:47;101090.75;;;0.66;100.00
48553;BME280;34335;51.566;6.994;2024-03-08T02:53:13;101088.03;;;0.63;100.00
48553;BME280;34335;51.566;6.994;2024-03-08T02:55:39;101087.28;;;0.66;100.00
48553;BME280;34335;51.566;6.994;2024-03-08T02:58:05;101092.34;;;0.64;100.00
48553;BME280;34335;51.566;6.994;2024-03-08T03:00:33;101080.22;;;0.60;100.00
48553;BME280;34335;51.566;6.994;2024-03-08T03:02:59;101089.66;;;0.61;100.00
48553;BME280;34335;51.566;6.994;2024-03-08T03:05:24;101087.88;;;0.60;100.00
48553;BME280;34335;51.566;6.994;2024-03-08T03:07:50;101083.66;;;0.60;100.00
48553;BME280;34335;51.566;6.994;2024-03-08T03:10:19;101077.44;;;0.55;100.00
48553;BME280;34335;51.566;6.994;2024-03-08T03:12:45;101081.69;;;0.55;100.00
48553;BME280;34335;51.566;6.994;2024-03-08T03:15:11;101067.88;;;0.51;100.00
48553;BME280;34335;51.566;6.994;2024-03-08T03:17:37;101061.88;;;0.51;100.00
48553;BME280;34335;51.566;6.994;2024-03-08T03:20:05;101068.00;;;0.54;100.00
48553;BME280;34335;51.566;6.994;2024-03-08T03:22:35;101060.88;;;0.47;100.00
48553;BME280;34335;51.566;6.994;2024-03-08T03:25:02;101057.34;;;0.45;100.00
48553;BME280;34335;51.566;6.994;2024-03-08T03:27:29;101060.00;;;0.46;100.00
48553;BME280;34335;51.566;6.994;2024-03-08T03:29:55;101053.72;;;0.40;100.00
48553;BME280;34335;51.566;6.994;2024-03-08T03:32:23;101059.00;;;0.43;100.00
48553;BME280;34335;51.566;6.994;2024-03-08T03:34:49;101057.09;;;0.39;100.00
48553;BME280;34335;51.566;6.994;2024-03-08T03:37:18;101062.34;;;0.42;100.00
48553;BME280;34335;51.566;6.994;2024-03-08T03:39:44;101054.38;;;0.36;100.00
48553;BME280;34335;51.566;6.994;2024-03-08T03:42:19;101045.97;;;0.38;100.00
48553;BME280;34335;51.566;6.994;2024-03-08T03:44:45;101046.63;;;0.34;100.00
48553;BME280;34335;51.566;6.994;2024-03-08T03:47:12;101045.88;;;0.37;100.00
48553;BME280;34335;51.566;6.994;2024-03-08T03:49:37;101036.34;;;0.33;100.00
48553;BME280;34335;51.566;6.994;2024-03-08T03:52:02;101041.38;;;0.31;100.00
48553;BME280;34335;51.566;6.994;2024-03-08T03:54:29;101038.91;;;0.33;100.00
48553;BME280;34335;51.566;6.994;2024-03-08T03:56:56;101042.31;;;0.33;100.00
48553;BME280;34335;51.566;6.994;2024-03-08T03:59:21;101037.94;;;0.30;100.00
48553;BME280;34335;51.566;6.994;2024-03-08T04:01:46;101042.84;;;0.26;100.00
48553;BME280;34335;51.566;6.994;2024-03-08T04:04:12;101038.53;;;0.25;100.00
48553;BME280;34335;51.566;6.994;2024-03-08T04:06:37;101036.78;;;0.24;100.00
48553;BME280;34335;51.566;6.994;2024-03-08T04:09:02;101033.41;;;0.25;100.00
48553;BME280;34335;51.566;6.994;2024-03-08T04:11:29;101028.16;;;0.22;100.00
48553;BME280;34335;51.566;6.994;2024-03-08T04:13:55;101027.13;;;0.18;100.00
48553;BME280;34335;51.566;6.994;2024-03-08T04:16:20;101031.44;;;0.19;100.00
48553;BME280;34335;51.566;6.994;2024-03-08T04:18:46;101037.38;;;0.18;100.00
48553;BME280;34335;51.566;6.994;2024-03-08T04:21:11;101027.88;;;0.15;100.00
48553;BME280;34335;51.566;6.994;2024-03-08T04:23:36;101023.63;;;0.16;100.00
48553;BME280;34335;51.566;6.994;2024-03-08T04:26:05;101018.38;;;0.13;100.00
48553;BME280;34335;51.566;6.994;2024-03-08T04:28:31;101019.19;;;0.12;100.00
48553;BME280;34335;51.566;6.994;2024-03-08T04:30:57;101018.16;;;0.08;100.00
48553;BME280;34335;51.566;6.994;2024-03-08T04:33:22;101021.59;;;0.09;100.00
48553;BME280;34335;51.566;6.994;2024-03-08T04:35:48;101022.38;;;0.08;100.00
48553;BME280;34335;51.566;6.994;2024-03-08T04:38:14;101019.56;;;0.02;100.00
48553;BME280;34335;51.566;6.994;2024-03-08T04:40:40;101024.81;;;0.05;100.00
48553;BME280;34335;51.566;6.994;2024-03-08T04:43:06;101017.81;;;0.01;100.00
48553;BME280;34335;51.566;6.994;2024-03-08T04:45:33;101011.88;;;0.02;100.00
48553;BME280;34335;51.566;6.994;2024-03-08T04:47:58;101006.56;;;-0.03;100.00
48553;BME280;34335;51.566;6.994;2024-03-08T04:50:24;101004.81;;;-0.04;100.00
48553;BME280;34335;51.566;6.994;2024-03-08T04:52:49;101003.78;;;-0.08;100.00
48553;BME280;34335;51.566;6.994;2024-03-08T04:55:14;101000.44;;;-0.07;100.00
48553;BME280;34335;51.566;6.994;2024-03-08T04:57:39;101005.53;;;-0.07;100.00
48553;BME280;34335;51.566;6.994;2024-03-08T05:00:07;101007.28;;;-0.06;100.00
48553;BME280;34335;51.566;6.994;2024-03-08T05:02:36;100995.00;;;-0.13;100.00
48553;BME280;34335;51.566;6.994;2024-03-08T05:05:01;100994.88;;;-0.16;100.00
48553;BME280;34335;51.566;6.994;2024-03-08T05:07:27;100996.69;;;-0.13;100.00
48553;BME280;34335;51.566;6.994;2024-03-08T05:09:52;100996.03;;;-0.09;100.00
48553;BME280;34335;51.566;6.994;2024-03-08T05:12:18;100995.16;;;-0.10;100.00
48553;BME280;34335;51.566;6.994;2024-03-08T05:14:45;100985.78;;;-0.09;100.00
48553;BME280;34335;51.566;6.994;2024-03-08T05:17:11;100991.66;;;-0.12;100.00
48553;BME280;34335;51.566;6.994;2024-03-08T05:19:37;100987.34;;;-0.13;100.00
48553;BME280;34335;51.566;6.994;2024-03-08T05:22:02;100983.69;;;-0.18;100.00
48553;BME280;34335;51.566;6.994;2024-03-08T05:24:28;100986.25;;;-0.18;100.00
48553;BME280;34335;51.566;6.994;2024-03-08T05:26:55;100987.84;;;-0.20;100.00
48553;BME280;34335;51.566;6.994;2024-03-08T05:29:20;100983.31;;;-0.26;100.00
48553;BME280;34335;51.566;6.994;2024-03-08T05:31:46;100979.97;;;-0.25;100.00
48553;BME280;34335;51.566;6.994;2024-03-08T05:34:13;100983.19;;;-0.29;100.00
48553;BME280;34335;51.566;6.994;2024-03-08T05:36:39;100975.53;;;-0.29;100.00
48553;BME280;34335;51.566;6.994;2024-03-08T05:39:05;100981.50;;;-0.28;100.00
48553;BME280;34335;51.566;6.994;2024-03-08T05:41:31;100985.97;;;-0.24;100.00
48553;BME280;34335;51.566;6.994;2024-03-08T05:43:56;100981.34;;;-0.32;100.00
48553;BME280;34335;51.566;6.994;2024-03-08T05:46:22;100973.69;;;-0.32;100.00
48553;BME280;34335;51.566;6.994;2024-03-08T05:48:47;100978.66;;;-0.35;100.00
48553;BME280;34335;51.566;6.994;2024-03-08T05:51:12;100978.66;;;-0.35;100.00
48553;BME280;34335;51.566;6.994;2024-03-08T05:53:38;100979.38;;;-0.37;100.00
48553;BME280;34335;51.566;6.994;2024-03-08T05:56:03;100972.59;;;-0.37;100.00
48553;BME280;34335;51.566;6.994;2024-03-08T05:58:28;100977.56;;;-0.40;100.00
48553;BME280;34335;51.566;6.994;2024-03-08T06:00:55;100975.69;;;-0.44;100.00
48553;BME280;34335;51.566;6.994;2024-03-08T06:03:21;100968.81;;;-0.45;100.00
48553;BME280;34335;51.566;6.994;2024-03-08T06:05:48;100973.03;;;-0.45;100.00
48553;BME280;34335;51.566;6.994;2024-03-08T06:08:13;100966.25;;;-0.45;100.00
48553;BME280;34335;51.566;6.994;2024-03-08T06:10:40;100972.97;;;-0.47;100.00
48553;BME280;34335;51.566;6.994;2024-03-08T06:13:05;100962.59;;;-0.50;100.00
48553;BME280;34335;51.566;6.994;2024-03-08T06:15:31;100972.00;;;-0.49;100.00
48553;BME280;34335;51.566;6.994;2024-03-08T06:17:56;100966.09;;;-0.48;100.00
48553;BME280;34335;51.566;6.994;2024-03-08T06:20:22;100958.28;;;-0.51;100.00
48553;BME280;34335;51.566;6.994;2024-03-08T06:22:51;100962.75;;;-0.47;100.00
48553;BME280;34335;51.566;6.994;2024-03-08T06:25:16;100962.75;;;-0.47;100.00
48553;BME280;34335;51.566;6.994;2024-03-08T06:27:42;100969.50;;;-0.48;100.00
48553;BME280;34335;51.566;6.994;2024-03-08T06:30:08;100960.25;;;-0.45;100.00
48553;BME280;34335;51.566;6.994;2024-03-08T06:32:35;100956.72;;;-0.48;100.00
48553;BME280;34335;51.566;6.994;2024-03-08T06:35:01;100965.06;;;-0.52;100.00
48553;BME280;34335;51.566;6.994;2024-03-08T06:37:27;100960.03;;;-0.50;100.00
48553;BME280;34335;51.566;6.994;2024-03-08T06:39:52;100963.47;;;-0.50;100.00
48553;BME280;34335;51.566;6.994;2024-03-08T06:42:20;100960.03;;;-0.50;100.00
48553;BME280;34335;51.566;6.994;2024-03-08T06:44:45;100950.59;;;-0.51;100.00
48553;BME280;34335;51.566;6.994;2024-03-08T06:47:15;100961.13;;;-0.45;100.00
48553;BME280;34335;51.566;6.994;2024-03-08T06:49:43;100958.50;;;-0.28;100.00
48553;BME280;34335;51.566;6.994;2024-03-08T06:52:10;100964.00;;;-0.21;100.00
48553;BME280;34335;51.566;6.994;2024-03-08T06:54:36;100964.41;;;-0.11;100.00
48553;BME280;34335;51.566;6.994;2024-03-08T06:57:03;100960.06;;;0.06;100.00
48553;BME280;34335;51.566;6.994;2024-03-08T06:59:28;100968.09;;;-0.05;100.00
48553;BME280;34335;51.566;6.994;2024-03-08T07:01:53;100962.56;;;-0.14;100.00
48553;BME280;34335;51.566;6.994;2024-03-08T07:04:19;100959.09;;;-0.16;100.00
48553;BME280;34335;51.566;6.994;2024-03-08T07:06:45;100964.63;;;-0.25;100.00
48553;BME280;34335;51.566;6.994;2024-03-08T07:09:10;100961.50;;;-0.19;100.00
48553;BME280;34335;51.566;6.994;2024-03-08T07:11:36;100962.97;;;-0.24;100.00
48553;BME280;34335;51.566;6.994;2024-03-08T07:14:02;100957.84;;;-0.24;100.00
48553;BME280;34335;51.566;6.994;2024-03-08T07:16:30;100965.88;;;-0.17;100.00
48553;BME280;34335;51.566;6.994;2024-03-08T07:18:56;100959.69;;;-0.22;100.00
48553;BME280;34335;51.566;6.994;2024-03-08T07:21:23;100962.44;;;-0.17;100.00
48553;BME280;34335;51.566;6.994;2024-03-08T07:23:48;100967.19;;;-0.07;100.00
48553;BME280;34335;51.566;6.994;2024-03-08T07:26:25;100964.97;;;0.01;100.00
48553;BME280;34335;51.566;6.994;2024-03-08T07:28:51;100967.19;;;-0.07;100.00
48553;BME280;34335;51.566;6.994;2024-03-08T07:31:16;100965.13;;;0.04;100.00
48553;BME280;34335;51.566;6.994;2024-03-08T07:33:50;100962.81;;;0.10;100.00
48553;BME280;34335;51.566;6.994;2024-03-08T07:36:16;100960.03;;;0.24;100.00
48553;BME280;34335;51.566;6.994;2024-03-08T07:38:41;100956.06;;;0.30;100.00
48553;BME280;34335;51.566;6.994;2024-03-08T07:41:06;100952.72;;;0.32;100.00
48553;BME280;34335;51.566;6.994;2024-03-08T07:43:32;100958.22;;;0.21;100.00
48553;BME280;34335;51.566;6.994;2024-03-08T07:45:57;100955.28;;;0.32;100.00
48553;BME280;34335;51.566;6.994;2024-03-08T07:48:23;100951.50;;;0.43;100.00
48553;BME280;34335;51.566;6.994;2024-03-08T07:50:48;100955.19;;;0.50;100.00
48553;BME280;34335;51.566;6.994;2024-03-08T07:53:15;100947.66;;;0.53;100.00
48553;BME280;34335;51.566;6.994;2024-03-08T07:55:40;100952.03;;;0.55;100.00
48553;BME280;34335;51.566;6.994;2024-03-08T07:58:07;100942.19;;;0.65;100.00
48553;BME280;34335;51.566;6.994;2024-03-08T08:00:34;100940.78;;;0.71;100.00
48553;BME280;34335;51.566;6.994;2024-03-08T08:03:01;100939.50;;;0.81;100.00
48553;BME280;34335;51.566;6.994;2024-03-08T08:05:26;100931.44;;;0.93;100.00
48553;BME280;34335;51.566;6.994;2024-03-08T08:07:52;100927.53;;;1.01;100.00
48553;BME280;34335;51.566;6.994;2024-03-08T08:10:18;100925.66;;;1.18;100.00
48553;BME280;34335;51.566;6.994;2024-03-08T08:12:47;100924.16;;;1.23;100.00
48553;BME280;34335;51.566;6.994;2024-03-08T08:15:13;100916.91;;;1.34;100.00
48553;BME280;34335;51.566;6.994;2024-03-08T08:17:41;100913.78;;;1.42;100.00
48553;BME280;34335;51.566;6.994;2024-03-08T08:20:06;100907.19;;;1.48;100.00
48553;BME280;34335;51.566;6.994;2024-03-08T08:22:31;100918.44;;;1.52;100.00
48553;BME280;34335;51.566;6.994;2024-03-08T08:24:57;100913.91;;;1.67;100.00
48553;BME280;34335;51.566;6.994;2024-03-08T08:27:22;100905.44;;;1.70;100.00
48553;BME280;34335;51.566;6.994;2024-03-08T08:29:47;100904.16;;;1.81;100.00
48553;BME280;34335;51.566;6.994;2024-03-08T08:32:15;100898.44;;;1.89;100.00
48553;BME280;34335;51.566;6.994;2024-03-08T08:34:40;100896.56;;;2.07;100.00
48553;BME280;34335;51.566;6.994;2024-03-08T08:37:07;100893.44;;;2.14;100.00
48553;BME280;34335;51.566;6.994;2024-03-08T08:39:34;100889.41;;;2.21;100.00
48553;BME280;34335;51.566;6.994;2024-03-08T08:42:00;100882.13;;;2.33;100.00
48553;BME280;34335;51.566;6.994;2024-03-08T08:44:25;100885.81;;;2.42;100.00
48553;BME280;34335;51.566;6.994;2024-03-08T08:46:50;100867.94;;;2.69;100.00
48553;BME280;34335;51.566;6.994;2024-03-08T08:49:16;100868.59;;;2.63;100.00
48553;BME280;34335;51.566;6.994;2024-03-08T08:51:51;100870.19;;;2.86;100.00
48553;BME280;34335;51.566;6.994;2024-03-08T08:54:17;100866.03;;;2.89;100.00
48553;BME280;34335;51.566;6.994;2024-03-08T08:56:42;100864.69;;;3.01;100.00
48553;BME280;34335;51.566;6.994;2024-03-08T08:59:09;100851.72;;;3.23;100.00
48553;BME280;34335;51.566;6.994;2024-03-08T09:01:34;100856.97;;;3.26;100.00
48553;BME280;34335;51.566;6.994;2024-03-08T09:04:00;100861.66;;;3.41;100.00
48553;BME280;34335;51.566;6.994;2024-03-08T09:06:25;100851.69;;;3.51;100.00
48553;BME280;34335;51.566;6.994;2024-03-08T09:08:51;100850.97;;;3.56;100.00
48553;BME280;34335;51.566;6.994;2024-03-08T09:11:16;100844.41;;;3.95;100.00
48553;BME280;34335;51.566;6.994;2024-03-08T09:13:44;100845.66;;;3.79;100.00
48553;BME280;34335;51.566;6.994;2024-03-08T09:16:10;100835.53;;;3.85;100.00
48553;BME280;34335;51.566;6.994;2024-03-08T09:18:36;100833.44;;;4.02;100.00
48553;BME280;34335;51.566;6.994;2024-03-08T09:21:01;100829.44;;;4.12;100.00
48553;BME280;34335;51.566;6.994;2024-03-08T09:23:26;100827.97;;;4.22;100.00
48553;BME280;34335;51.566;6.994;2024-03-08T09:25:58;100810.50;;;4.42;100.00
48553;BME280;34335;51.566;6.994;2024-03-08T09:28:24;100815.31;;;4.63;100.00
48553;BME280;34335;51.566;6.994;2024-03-08T09:30:50;100811.84;;;4.63;100.00
48553;BME280;34335;51.566;6.994;2024-03-08T09:33:15;100813.72;;;5.04;100.00
48553;BME280;34335;51.566;6.994;2024-03-08T09:35:45;100803.31;;;5.01;100.00
48553;BME280;34335;51.566;6.994;2024-03-08T09:38:12;100804.44;;;5.12;100.00
48553;BME280;34335;51.566;6.994;2024-03-08T09:40:38;100801.22;;;5.22;100.00
48553;BME280;34335;51.566;6.994;2024-03-08T09:43:04;100800.09;;;5.49;100.00
48553;BME280;34335;51.566;6.994;2024-03-08T09:45:31;100808.06;;;5.60;100.00
48553;BME280;34335;51.566;6.994;2024-03-08T09:48:01;100787.56;;;5.66;100.00
48553;BME280;34335;51.566;6.994;2024-03-08T09:50:26;100791.19;;;5.76;100.00
48553;BME280;34335;51.566;6.994;2024-03-08T09:52:53;100781.88;;;5.84;100.00
48553;BME280;34335;51.566;6.994;2024-03-08T09:55:22;100784.63;;;5.92;100.00
48553;BME280;34335;51.566;6.994;2024-03-08T09:57:47;100777.81;;;5.97;100.00
48553;BME280;34335;51.566;6.994;2024-03-08T10:00:33;100771.72;;;6.38;100.00
48553;BME280;34335;51.566;6.994;2024-03-08T10:03:02;100765.50;;;6.28;100.00
48553;BME280;34335;51.566;6.994;2024-03-08T10:05:28;100761.84;;;6.15;100.00
48553;BME280;34335;51.566;6.994;2024-03-08T10:07:53;100757.56;;;6.17;100.00
48553;BME280;34335;51.566;6.994;2024-03-08T10:10:19;100757.81;;;6.30;100.00
48553;BME280;34335;51.566;6.994;2024-03-08T10:12:46;100752.75;;;6.37;100.00
48553;BME280;34335;51.566;6.994;2024-03-08T10:15:11;100751.31;;;6.55;100.00
48553;BME280;34335;51.566;6.994;2024-03-08T10:17:37;100750.69;;;6.70;100.00
48553;BME280;34335;51.566;6.994;2024-03-08T10:20:13;100751.75;;;6.83;100.00
48553;BME280;34335;51.566;6.994;2024-03-08T10:22:40;100745.91;;;6.95;100.00
48553;BME280;34335;51.566;6.994;2024-03-08T10:25:09;100745.16;;;7.04;100.00
48553;BME280;34335;51.566;6.994;2024-03-08T10:27:35;100742.69;;;7.11;100.00
48553;BME280;34335;51.566;6.994;2024-03-08T10:30:01;100735.09;;;7.24;100.00
48553;BME280;34335;51.566;6.994;2024-03-08T10:32:26;100733.38;;;7.24;100.00
48553;BME280;34335;51.566;6.994;2024-03-08T10:34:51;100732.66;;;7.36;100.00
48553;BME280;34335;51.566;6.994;2024-03-08T10:37:21;100730.16;;;7.42;100.00
48553;BME280;34335;51.566;6.994;2024-03-08T10:40:04;100744.16;;;7.58;100.00
48553;BME280;34335;51.566;6.994;2024-03-08T10:42:40;100732.97;;;7.61;100.00
48553;BME280;34335;51.566;6.994;2024-03-08T10:45:34;100721.06;;;7.80;100.00
48553;BME280;34335;51.566;6.994;2024-03-08T10:48:14;100719.47;;;7.90;100.00
48553;BME280;34335;51.566;6.994;2024-03-08T10:50:43;100719.41;;;7.84;100.00
48553;BME280;34335;51.566;6.994;2024-03-08T10:53:14;100722.28;;;8.15;100.00
48553;BME280;34335;51.566;6.994;2024-03-08T10:55:40;100711.41;;;8.53;100.00
48553;BME280;34335;51.566;6.994;2024-03-08T10:58:05;100706.97;;;8.42;100.00
48553;BME280;34335;51.566;6.994;2024-03-08T11:00:33;100704.34;;;8.36;100.00
48553;BME280;34335;51.566;6.994;2024-03-08T11:02:58;100704.34;;;8.36;100.00
48553;BME280;34335;51.566;6.994;2024-03-08T11:05:38;100689.88;;;8.62;100.00
48553;BME280;34335;51.566;6.994;2024-03-08T11:08:17;100697.63;;;8.57;100.00
48553;BME280;34335;51.566;6.994;2024-03-08T11:10:53;100694.19;;;8.61;100.00
48553;BME280;34335;51.566;6.994;2024-03-08T11:13:37;100690.81;;;8.73;100.00
48553;BME280;34335;51.566;6.994;2024-03-08T11:16:23;100670.00;;;8.61;100.00
48553;BME280;34335;51.566;6.994;2024-03-08T11:21:36;100673.53;;;8.73;100.00
48553;BME280;34335;51.566;6.994;2024-03-08T11:24:09;100663.34;;;9.11;100.00
48553;BME280;34335;51.566;6.994;2024-03-08T11:26:37;100666.97;;;9.53;100.00
48553;BME280;34335;51.566;6.994;2024-03-08T11:34:34;100644.47;;;9.66;100.00
48553;BME280;34335;51.566;6.994;2024-03-08T11:37:00;100651.44;;;9.65;100.00
48553;BME280;34335;51.566;6.994;2024-03-08T11:39:26;100643.66;;;9.95;100.00
48553;BME280;34335;51.566;6.994;2024-03-08T11:41:51;100646.25;;;9.81;100.00
48553;BME280;34335;51.566;6.994;2024-03-08T11:44:17;100638.47;;;9.98;100.00
48553;BME280;34335;51.566;6.994;2024-03-08T11:46:43;100627.19;;;10.19;100.00
48553;BME280;34335;51.566;6.994;2024-03-08T11:49:15;100625.47;;;10.12;100.00
48553;BME280;34335;51.566;6.994;2024-03-08T11:51:41;100619.44;;;9.99;100.00
48553;BME280;34335;51.566;6.994;2024-03-08T11:54:11;100629.81;;;10.14;100.00
48553;BME280;34335;51.566;6.994;2024-03-08T11:56:37;100620.28;;;10.21;100.00
48553;BME280;34335;51.566;6.994;2024-03-08T11:59:03;100604.66;;;10.46;100.00
48553;BME280;34335;51.566;6.994;2024-03-08T12:01:28;100609.78;;;10.80;100.00
48553;BME280;34335;51.566;6.994;2024-03-08T12:03:55;100600.22;;;10.85;100.00
48553;BME280;34335;51.566;6.994;2024-03-08T12:06:24;100590.53;;;11.15;100.00
48553;BME280;34335;51.566;6.994;2024-03-08T12:08:49;100581.13;;;10.88;100.00
48553;BME280;34335;51.566;6.994;2024-03-08T12:11:17;100581.97;;;11.01;100.00
48553;BME280;34335;51.566;6.994;2024-03-08T12:13:44;100578.63;;;10.63;99.80
48553;BME280;34335;51.566;6.994;2024-03-08T12:16:11;100568.75;;;11.35;100.00
48553;BME280;34335;51.566;6.994;2024-03-08T12:18:38;100576.28;;;11.72;100.00
48553;BME280;34335;51.566;6.994;2024-03-08T12:21:11;100558.28;;;11.41;100.00
48553;BME280;34335;51.566;6.994;2024-03-08T12:23:38;100564.50;;;11.18;97.00
48553;BME280;34335;51.566;6.994;2024-03-08T12:26:18;100552.84;;;11.75;95.82
48553;BME280;34335;51.566;6.994;2024-03-08T12:28:48;100544.19;;;11.68;100.00
48553;BME280;34335;51.566;6.994;2024-03-08T12:31:15;100540.63;;;11.80;100.00
48553;BME280;34335;51.566;6.994;2024-03-08T12:33:55;100526.34;;;12.23;100.00
48553;BME280;34335;51.566;6.994;2024-03-08T12:36:24;100521.84;;;13.06;100.00
48553;BME280;34335;51.566;6.994;2024-03-08T12:38:50;100520.91;;;13.11;100.00
48553;BME280;34335;51.566;6.994;2024-03-08T12:41:16;100516.34;;;12.61;100.00
48553;BME280;34335;51.566;6.994;2024-03-08T12:43:45;100513.69;;;12.66;98.59
48553;BME280;34335;51.566;6.994;2024-03-08T12:46:20;100513.75;;;12.61;100.00
48553;BME280;34335;51.566;6.994;2024-03-08T12:48:46;100509.66;;;13.05;98.52
48553;BME280;34335;51.566;6.994;2024-03-08T12:51:16;100513.59;;;13.34;100.00
48553;BME280;34335;51.566;6.994;2024-03-08T12:53:43;100506.63;;;13.35;100.00